createdAt,value
2023-05-09T00:00:18.071Z,7.08
2023-05-09T00:02:47.147Z,7.05
2023-05-09T00:05:16.571Z,7.02
2023-05-09T00:07:45.532Z,7.00
2023-05-09T00:10:16.470Z,6.99
2023-05-09T00:12:47.585Z,6.99
2023-05-09T00:15:16.767Z,6.97
2023-05-09T00:17:46.235Z,6.96
2023-05-09T00:20:14.974Z,6.92
2023-05-09T00:22:43.870Z,6.87
2023-05-09T00:25:13.111Z,6.85
2023-05-09T00:27:42.283Z,6.80
2023-05-09T00:30:13.282Z,6.73
2023-05-09T00:32:41.949Z,6.74
2023-05-09T00:35:11.275Z,6.67
2023-05-09T00:37:40.203Z,6.64
2023-05-09T00:40:09.821Z,6.65
2023-05-09T00:42:39.043Z,6.57
2023-05-09T00:45:08.891Z,6.57
2023-05-09T00:47:39.904Z,6.57
2023-05-09T00:50:11.277Z,6.57
2023-05-09T00:52:40.597Z,6.57
2023-05-09T00:55:10.397Z,6.54
2023-05-09T00:57:38.889Z,6.52
2023-05-09T01:00:13.440Z,6.49
2023-05-09T01:02:45.221Z,6.50
2023-05-09T01:05:14.633Z,6.50
2023-05-09T01:07:48.175Z,6.47
2023-05-09T01:10:23.370Z,6.44
2023-05-09T01:12:57.687Z,6.38
2023-05-09T01:15:31.156Z,6.34
2023-05-09T01:18:11.453Z,6.30
2023-05-09T01:20:42.549Z,6.25
2023-05-09T01:23:23.400Z,6.25
2023-05-09T01:25:57.485Z,6.21
2023-05-09T01:28:37.042Z,6.20
2023-05-09T01:31:08.363Z,6.17
2023-05-09T01:33:40.911Z,6.15
2023-05-09T01:36:14.744Z,6.17
2023-05-09T01:38:44.323Z,6.17
2023-05-09T01:41:13.765Z,6.12
2023-05-09T01:43:43.079Z,6.02
2023-05-09T01:46:15.025Z,6.06
2023-05-09T01:48:43.975Z,6.05
2023-05-09T01:51:15.014Z,6.02
2023-05-09T01:53:44.234Z,5.96
2023-05-09T01:56:13.860Z,5.93
2023-05-09T01:58:43.288Z,5.87
2023-05-09T02:01:14.964Z,5.86
2023-05-09T02:03:47.192Z,5.83
2023-05-09T02:06:16.510Z,5.83
2023-05-09T02:08:45.986Z,5.84
2023-05-09T02:11:14.853Z,5.79
2023-05-09T02:13:43.758Z,5.74
2023-05-09T02:16:13.681Z,5.72
2023-05-09T02:18:42.819Z,5.72
2023-05-09T02:21:11.929Z,5.66
2023-05-09T02:23:40.863Z,5.65
2023-05-09T02:26:09.847Z,5.65
2023-05-09T02:28:39.350Z,5.66
2023-05-09T02:31:08.240Z,5.67
2023-05-09T02:33:39.833Z,5.67
2023-05-09T02:36:09.325Z,5.62
2023-05-09T02:38:38.391Z,5.58
2023-05-09T02:41:07.391Z,5.58
2023-05-09T02:43:36.483Z,5.59
2023-05-09T02:46:05.049Z,5.56
2023-05-09T02:48:33.346Z,5.51
2023-05-09T02:51:04.586Z,5.50
2023-05-09T02:53:33.654Z,5.47
2023-05-09T02:56:02.045Z,5.46
2023-05-09T02:58:30.900Z,5.49
2023-05-09T03:01:00.703Z,5.49
2023-05-09T03:03:30.137Z,5.51
2023-05-09T03:05:58.857Z,5.47
2023-05-09T03:08:29.051Z,5.47
2023-05-09T03:10:57.393Z,5.40
2023-05-09T03:13:26.715Z,5.43
2023-05-09T03:15:55.346Z,5.48
2023-05-09T03:18:24.437Z,5.50
2023-05-09T03:20:53.187Z,5.56
2023-05-09T03:23:24.280Z,5.59
2023-05-09T03:25:54.031Z,5.61
2023-05-09T03:28:22.914Z,5.65
2023-05-09T03:30:51.831Z,5.66
2023-05-09T03:33:20.660Z,5.68
2023-05-09T03:35:49.352Z,5.71
2023-05-09T03:38:18.081Z,5.74
2023-05-09T03:40:46.749Z,5.72
2023-05-09T03:43:16.982Z,5.67
2023-05-09T03:45:45.886Z,5.54
2023-05-09T03:48:14.919Z,5.54
2023-05-09T03:50:43.648Z,5.62
2023-05-09T03:53:12.561Z,5.69
2023-05-09T03:55:41.151Z,5.78
2023-05-09T03:58:09.712Z,5.85
2023-05-09T04:00:40.027Z,5.88
2023-05-09T04:03:09.172Z,5.91
2023-05-09T04:05:37.861Z,5.96
2023-05-09T04:08:07.124Z,6.02
2023-05-09T04:10:35.750Z,6.09
2023-05-09T04:13:04.692Z,6.11
2023-05-09T04:15:33.010Z,6.17
2023-05-09T04:18:03.684Z,6.19
2023-05-09T04:20:32.647Z,6.24
2023-05-09T04:23:01.759Z,6.27
2023-05-09T04:25:34.673Z,6.31
2023-05-09T04:28:04.003Z,6.29
2023-05-09T04:30:32.844Z,6.20
2023-05-09T04:33:03.230Z,6.29
2023-05-09T04:35:31.962Z,6.31
2023-05-09T04:38:00.971Z,6.34
2023-05-09T04:40:31.193Z,6.36
2023-05-09T04:43:02.082Z,6.42
2023-05-09T04:45:30.420Z,6.41
2023-05-09T04:47:59.224Z,6.41
2023-05-09T04:50:29.412Z,6.35
2023-05-09T04:52:58.051Z,6.31
2023-05-09T04:55:26.549Z,6.37
2023-05-09T04:57:55.412Z,6.47
2023-05-09T05:00:23.956Z,6.48
2023-05-09T05:02:52.962Z,6.56
2023-05-09T05:05:25.071Z,6.54
2023-05-09T05:07:56.248Z,6.61
2023-05-09T05:10:24.983Z,6.71
2023-05-09T05:12:53.597Z,6.83
2023-05-09T05:15:22.265Z,6.94
2023-05-09T05:17:50.943Z,7.04
2023-05-09T05:20:19.730Z,7.07
2023-05-09T05:22:48.144Z,7.14
2023-05-09T05:25:18.802Z,7.20
2023-05-09T05:27:47.320Z,7.20
2023-05-09T05:30:16.931Z,7.29
2023-05-09T05:32:45.951Z,7.35
2023-05-09T05:35:15.230Z,7.40
2023-05-09T05:37:44.543Z,7.45
2023-05-09T05:40:13.754Z,7.38
2023-05-09T05:42:44.632Z,7.29
2023-05-09T05:45:13.702Z,7.32
2023-05-09T05:47:42.453Z,7.39
2023-05-09T05:50:12.525Z,7.46
2023-05-09T05:52:42.841Z,7.55
2023-05-09T05:55:11.760Z,7.59
2023-05-09T05:57:41.378Z,7.59
2023-05-09T06:00:14.707Z,7.65
2023-05-09T06:02:45.042Z,7.67
2023-05-09T06:05:14.047Z,7.65
2023-05-09T06:07:44.468Z,7.71
2023-05-09T06:10:13.719Z,7.76
2023-05-09T06:12:42.347Z,7.78
2023-05-09T06:15:13.433Z,7.78
2023-05-09T06:17:42.088Z,7.90
2023-05-09T06:20:11.528Z,8.00
2023-05-09T06:22:40.245Z,8.04
2023-05-09T06:25:10.608Z,8.08
2023-05-09T06:27:39.501Z,8.08
2023-05-09T06:30:23.903Z,8.26
2023-05-09T06:32:56.209Z,8.32
2023-05-09T06:35:24.525Z,8.30
2023-05-09T06:37:53.188Z,8.30
2023-05-09T06:40:21.635Z,8.37
2023-05-09T06:42:50.144Z,8.38
2023-05-09T06:45:19.111Z,8.37
2023-05-09T06:47:48.062Z,8.33
2023-05-09T06:50:20.522Z,8.35
2023-05-09T06:52:49.688Z,8.45
2023-05-09T06:55:18.304Z,8.50
2023-05-09T06:57:47.114Z,8.58
2023-05-09T07:00:17.425Z,8.60
2023-05-09T07:02:46.703Z,8.68
2023-05-09T07:05:16.606Z,8.86
2023-05-09T07:07:46.776Z,9.07
2023-05-09T07:10:15.552Z,9.11
2023-05-09T07:12:44.161Z,9.26
2023-05-09T07:15:14.660Z,9.29
2023-05-09T07:17:47.339Z,9.42
2023-05-09T07:20:16.300Z,9.56
2023-05-09T07:22:46.374Z,9.63
2023-05-09T07:25:15.914Z,9.71
2023-05-09T07:27:44.904Z,9.84
2023-05-09T07:30:14.688Z,9.91
2023-05-09T07:32:45.428Z,10.07
2023-05-09T07:35:14.409Z,10.15
2023-05-09T07:37:43.294Z,10.31
2023-05-09T07:40:15.037Z,10.37
2023-05-09T07:42:50.120Z,10.00
2023-05-09T07:45:21.966Z,10.49
2023-05-09T07:47:53.065Z,10.71
2023-05-09T07:50:23.450Z,10.73
2023-05-09T07:52:52.986Z,10.90
2023-05-09T07:55:23.674Z,11.07
2023-05-09T07:57:52.625Z,11.16
2023-05-09T08:00:24.169Z,11.09
2023-05-09T08:02:53.335Z,10.88
2023-05-09T08:05:22.312Z,10.86
2023-05-09T08:07:51.287Z,11.00
2023-05-09T08:10:22.062Z,11.11
2023-05-09T08:12:52.960Z,11.29
2023-05-09T08:15:22.107Z,11.48
2023-05-09T08:17:50.864Z,11.54
2023-05-09T08:20:19.679Z,11.57
2023-05-09T08:22:48.204Z,11.37
2023-05-09T08:25:18.592Z,11.62
2023-05-09T08:27:47.968Z,11.70
2023-05-09T08:30:18.644Z,11.63
2023-05-09T08:32:47.494Z,11.56
2023-05-09T08:35:16.494Z,11.46
2023-05-09T08:37:48.194Z,11.59
2023-05-09T08:40:17.583Z,11.78
2023-05-09T08:42:47.437Z,12.05
2023-05-09T08:45:18.200Z,12.05
2023-05-09T08:47:47.805Z,11.85
2023-05-09T08:50:17.703Z,11.97
2023-05-09T08:52:46.741Z,12.14
2023-05-09T08:55:16.426Z,12.24
2023-05-09T08:57:45.270Z,12.55
2023-05-09T09:00:17.951Z,12.79
2023-05-09T09:02:50.265Z,12.79
2023-05-09T09:05:39.476Z,13.00
2023-05-09T09:08:09.126Z,13.15
2023-05-09T09:10:42.075Z,13.27
2023-05-09T09:13:11.964Z,13.49
2023-05-09T09:15:43.285Z,13.55
2023-05-09T09:18:14.736Z,13.58
2023-05-09T09:20:50.208Z,13.73
2023-05-09T09:23:20.944Z,13.73
2023-05-09T09:25:49.797Z,13.75
2023-05-09T09:28:18.872Z,13.80
2023-05-09T09:30:49.400Z,13.97
2023-05-09T09:33:23.623Z,14.17
2023-05-09T09:35:53.636Z,14.11
2023-05-09T09:38:23.114Z,14.18
2023-05-09T09:40:56.288Z,14.41
2023-05-09T09:43:32.363Z,14.58
2023-05-09T09:46:03.078Z,14.68
2023-05-09T09:48:35.416Z,14.83
2023-05-09T09:51:11.602Z,15.08
2023-05-09T09:53:41.405Z,15.16
2023-05-09T09:56:10.561Z,15.39
2023-05-09T09:58:39.417Z,15.52
2023-05-09T10:01:09.039Z,15.59
2023-05-09T10:03:40.537Z,15.52
2023-05-09T10:06:13.113Z,15.08
2023-05-09T10:08:42.492Z,15.55
2023-05-09T10:11:11.555Z,15.91
2023-05-09T10:13:40.815Z,15.98
2023-05-09T10:16:10.923Z,16.27
2023-05-09T10:18:43.031Z,16.29
2023-05-09T10:21:13.885Z,16.46
2023-05-09T10:23:44.842Z,16.65
2023-05-09T10:26:19.921Z,16.59
2023-05-09T10:28:50.240Z,16.93
2023-05-09T10:31:26.558Z,16.97
2023-05-09T10:34:03.461Z,17.08
2023-05-09T10:36:32.941Z,16.97
2023-05-09T10:39:01.813Z,16.81
2023-05-09T10:41:31.136Z,17.03
2023-05-09T10:44:00.580Z,17.35
2023-05-09T10:46:29.753Z,17.56
2023-05-09T10:49:01.573Z,17.78
2023-05-09T10:51:30.523Z,17.81
2023-05-09T10:53:59.668Z,17.78
2023-05-09T10:56:32.112Z,17.83
2023-05-09T10:59:01.195Z,17.94
2023-05-09T11:01:33.094Z,17.35
2023-05-09T11:04:04.243Z,17.49
2023-05-09T11:06:49.498Z,17.21
2023-05-09T11:09:29.596Z,17.62
2023-05-09T11:11:59.271Z,18.02
2023-05-09T11:14:34.375Z,18.12
2023-05-09T11:17:04.403Z,18.40
2023-05-09T11:19:59.224Z,18.59
2023-05-09T11:22:34.214Z,18.75
2023-05-09T11:25:07.730Z,18.42
2023-05-09T11:27:43.447Z,18.20
2023-05-09T11:30:14.835Z,18.44
2023-05-09T11:32:46.233Z,18.81
2023-05-09T11:35:18.565Z,18.76
2023-05-09T11:37:49.768Z,18.68
2023-05-09T11:40:20.248Z,18.39
2023-05-09T11:42:50.444Z,18.66
2023-05-09T11:45:19.644Z,18.90
2023-05-09T11:47:49.366Z,18.82
2023-05-09T11:50:21.856Z,18.73
2023-05-09T11:52:51.292Z,19.06
2023-05-09T11:55:22.726Z,19.36
2023-05-09T11:57:52.720Z,19.19
2023-05-09T12:00:23.185Z,19.27
2023-05-09T12:02:52.778Z,18.78
2023-05-09T12:05:24.356Z,18.40
2023-05-09T12:07:53.754Z,18.47
2023-05-09T12:10:25.119Z,18.99
2023-05-09T12:12:56.589Z,18.88
2023-05-09T12:15:25.788Z,18.73
2023-05-09T12:18:05.090Z,18.93
2023-05-09T12:20:46.160Z,19.15
2023-05-09T12:23:15.897Z,19.34
2023-05-09T12:25:49.882Z,19.51
2023-05-09T12:28:19.750Z,19.69
2023-05-09T12:30:48.832Z,19.50
2023-05-09T12:33:18.095Z,19.66
2023-05-09T12:35:49.867Z,19.55
2023-05-09T12:38:23.543Z,19.46
2023-05-09T12:41:03.474Z,19.31
2023-05-09T12:43:34.221Z,19.54
2023-05-09T12:46:03.570Z,19.70
2023-05-09T12:48:38.233Z,19.47
2023-05-09T12:51:08.883Z,19.49
2023-05-09T12:53:40.719Z,19.54
2023-05-09T12:56:14.413Z,19.14
2023-05-09T12:58:49.839Z,19.64
2023-05-09T13:01:21.678Z,19.86
2023-05-09T13:03:55.011Z,19.86
2023-05-09T13:06:25.167Z,19.88
2023-05-09T13:09:01.753Z,19.93
2023-05-09T13:11:33.728Z,20.10
2023-05-09T13:14:03.602Z,20.04
2023-05-09T13:16:32.386Z,19.80
2023-05-09T13:19:01.883Z,19.90
2023-05-09T13:21:31.768Z,20.11
2023-05-09T13:24:00.327Z,20.12
2023-05-09T13:26:29.665Z,20.33
2023-05-09T13:28:58.811Z,20.56
2023-05-09T13:31:27.626Z,20.30
2023-05-09T13:33:56.656Z,20.26
2023-05-09T13:36:25.251Z,19.99
2023-05-09T13:38:55.399Z,19.99
2023-05-09T13:41:24.191Z,19.77
2023-05-09T13:43:52.999Z,19.80
2023-05-09T13:46:21.714Z,19.90
2023-05-09T13:48:50.575Z,20.09
2023-05-09T13:51:19.353Z,20.37
2023-05-09T13:53:48.713Z,20.44
2023-05-09T13:56:19.935Z,20.51
2023-05-09T13:58:49.328Z,20.53
2023-05-09T14:01:18.062Z,20.42
2023-05-09T14:03:49.716Z,20.38
2023-05-09T14:06:18.434Z,20.34
2023-05-09T14:08:47.800Z,20.31
2023-05-09T14:11:16.737Z,20.39
2023-05-09T14:13:47.157Z,20.44
2023-05-09T14:16:16.042Z,20.40
2023-05-09T14:18:44.827Z,20.08
2023-05-09T14:21:13.986Z,19.94
2023-05-09T14:23:43.558Z,19.82
2023-05-09T14:26:12.898Z,19.85
2023-05-09T14:28:46.142Z,19.70
2023-05-09T14:31:17.540Z,19.78
2023-05-09T14:33:46.322Z,19.93
2023-05-09T14:36:15.202Z,19.88
2023-05-09T14:38:44.488Z,20.05
2023-05-09T14:41:15.576Z,19.59
2023-05-09T14:43:44.360Z,19.68
2023-05-09T14:46:13.400Z,19.50
2023-05-09T14:48:43.732Z,19.55
2023-05-09T14:51:13.164Z,19.76
2023-05-09T14:53:42.248Z,19.88
2023-05-09T14:56:11.944Z,19.69
2023-05-09T14:58:40.908Z,19.35
2023-05-09T15:01:09.908Z,19.43
2023-05-09T15:03:39.772Z,19.15
2023-05-09T15:06:09.496Z,19.33
2023-05-09T15:08:39.501Z,19.46
2023-05-09T15:11:09.480Z,19.45
2023-05-09T15:13:38.436Z,19.29
2023-05-09T15:16:07.564Z,19.41
2023-05-09T15:18:36.653Z,19.45
2023-05-09T15:21:06.183Z,19.71
2023-05-09T15:23:36.369Z,19.85
2023-05-09T15:26:05.180Z,19.42
2023-05-09T15:28:34.515Z,18.99
2023-05-09T15:31:04.475Z,19.14
2023-05-09T15:33:33.820Z,19.22
2023-05-09T15:36:03.466Z,19.34
2023-05-09T15:38:31.964Z,19.38
2023-05-09T15:41:03.321Z,19.24
2023-05-09T15:43:32.161Z,19.50
2023-05-09T15:46:01.410Z,19.67
2023-05-09T15:48:30.172Z,19.47
2023-05-09T15:50:59.207Z,19.27
2023-05-09T15:53:29.093Z,19.19
2023-05-09T15:55:58.561Z,19.05
2023-05-09T15:58:28.800Z,18.80
2023-05-09T16:00:57.606Z,18.70
2023-05-09T16:03:26.534Z,18.50
2023-05-09T16:05:55.484Z,18.63
2023-05-09T16:08:24.321Z,18.42
2023-05-09T16:10:53.290Z,18.42
2023-05-09T16:13:22.855Z,18.31
2023-05-09T16:15:54.222Z,18.44
2023-05-09T16:18:23.212Z,18.36
2023-05-09T16:20:52.496Z,18.47
2023-05-09T16:23:21.314Z,18.52
2023-05-09T16:25:51.059Z,18.48
2023-05-09T16:28:23.788Z,18.27
2023-05-09T16:30:54.631Z,18.48
2023-05-09T16:33:23.401Z,18.59
2023-05-09T16:35:52.726Z,18.52
2023-05-09T16:38:21.900Z,18.51
2023-05-09T16:40:51.492Z,18.38
2023-05-09T16:43:21.102Z,18.18
2023-05-09T16:45:50.256Z,18.31
2023-05-09T16:48:21.048Z,18.03
2023-05-09T16:50:53.825Z,17.80
2023-05-09T16:53:24.496Z,17.83
2023-05-09T16:55:55.281Z,17.85
2023-05-09T16:58:25.402Z,17.80
2023-05-09T17:00:55.219Z,17.85
2023-05-09T17:03:26.019Z,17.89
2023-05-09T17:05:55.418Z,17.67
2023-05-09T17:08:24.672Z,17.57
2023-05-09T17:10:54.052Z,17.43
2023-05-09T17:13:23.307Z,17.36
2023-05-09T17:15:52.897Z,17.22
2023-05-09T17:18:35.962Z,17.16
2023-05-09T17:21:08.252Z,17.15
2023-05-09T17:23:36.709Z,17.04
2023-05-09T17:26:05.773Z,16.77
2023-05-09T17:28:34.573Z,16.55
2023-05-09T17:31:03.574Z,16.25
2023-05-09T17:33:32.267Z,16.12
2023-05-09T17:36:01.878Z,15.98
2023-05-09T17:38:32.017Z,15.86
2023-05-09T17:41:01.012Z,15.70
2023-05-09T17:43:30.243Z,15.51
2023-05-09T17:45:59.365Z,15.39
2023-05-09T17:48:28.185Z,15.13
2023-05-09T17:50:57.412Z,15.06
2023-05-09T17:53:25.940Z,14.97
2023-05-09T17:55:55.873Z,14.87
2023-05-09T17:58:24.551Z,14.84
2023-05-09T18:00:55.445Z,14.80
2023-05-09T18:03:25.106Z,14.75
2023-05-09T18:05:53.829Z,14.65
2023-05-09T18:08:22.640Z,14.51
2023-05-09T18:10:51.724Z,14.41
2023-05-09T18:13:23.522Z,14.35
2023-05-09T18:15:54.820Z,14.30
2023-05-09T18:18:24.088Z,14.23
2023-05-09T18:20:53.402Z,14.10
2023-05-09T18:23:22.269Z,14.04
2023-05-09T18:25:51.214Z,13.99
2023-05-09T18:28:24.751Z,13.91
2023-05-09T18:30:59.390Z,13.88
2023-05-09T18:33:29.262Z,13.81
2023-05-09T18:35:58.118Z,13.69
2023-05-09T18:38:27.570Z,13.69
2023-05-09T18:41:00.662Z,13.62
2023-05-09T18:43:31.172Z,13.62
2023-05-09T18:46:01.366Z,13.59
2023-05-09T18:48:31.404Z,13.56
2023-05-09T18:51:00.144Z,13.48
2023-05-09T18:53:29.288Z,13.45
2023-05-09T18:55:58.316Z,13.42
2023-05-09T18:58:28.886Z,13.37
2023-05-09T19:00:58.395Z,13.25
2023-05-09T19:03:29.684Z,13.19
2023-05-09T19:06:00.494Z,13.06
2023-05-09T19:08:29.375Z,12.95
2023-05-09T19:10:58.058Z,12.98
2023-05-09T19:13:27.339Z,12.93
2023-05-09T19:15:57.201Z,12.85
2023-05-09T19:18:25.828Z,12.78
2023-05-09T19:20:57.094Z,12.43
2023-05-09T19:23:26.708Z,12.67
2023-05-09T19:25:56.075Z,12.64
2023-05-09T19:28:25.314Z,12.62
2023-05-09T19:30:55.220Z,12.60
2023-05-09T19:33:25.301Z,12.52
2023-05-09T19:35:55.853Z,12.45
2023-05-09T19:38:24.437Z,12.39
2023-05-09T19:40:53.371Z,12.34
2023-05-09T19:43:22.536Z,12.31
2023-05-09T19:45:50.971Z,12.26
2023-05-09T19:48:19.533Z,12.17
2023-05-09T19:50:48.135Z,12.09
2023-05-09T19:53:18.318Z,12.07
2023-05-09T19:55:48.294Z,12.02
2023-05-09T19:58:18.006Z,11.98
2023-05-09T20:00:47.077Z,11.93
2023-05-09T20:03:16.561Z,11.86
2023-05-09T20:08:36.683Z,11.76
2023-05-09T20:11:05.937Z,11.71
2023-05-09T20:13:34.650Z,11.63
2023-05-09T20:16:04.284Z,11.57
2023-05-09T20:18:33.846Z,11.49
2023-05-09T20:21:02.194Z,11.39
2023-05-09T20:23:31.610Z,11.35
2023-05-09T20:26:01.940Z,11.26
2023-05-09T20:28:30.876Z,11.23
2023-05-09T20:30:59.519Z,11.16
2023-05-09T20:33:28.889Z,11.06
2023-05-09T20:35:57.310Z,10.93
2023-05-09T20:38:26.162Z,10.83
2023-05-09T20:40:55.237Z,10.75
2023-05-09T20:43:25.451Z,10.72
2023-05-09T20:45:54.237Z,10.67
2023-05-09T20:48:24.110Z,10.64
2023-05-09T20:50:53.354Z,10.63
2023-05-09T20:53:26.517Z,10.62
2023-05-09T20:55:55.700Z,10.48
2023-05-09T20:58:26.014Z,10.61
2023-05-09T21:00:54.739Z,10.58
2023-05-09T21:03:23.507Z,10.53
2023-05-09T21:05:52.049Z,10.45
2023-05-09T21:08:20.725Z,10.38
2023-05-09T21:10:48.996Z,10.36
2023-05-09T21:13:17.770Z,10.36
2023-05-09T21:15:50.359Z,10.35
2023-05-09T21:18:21.690Z,10.30
2023-05-09T21:20:50.846Z,10.23
2023-05-09T21:23:19.945Z,10.18
2023-05-09T21:25:48.816Z,10.11
2023-05-09T21:28:17.902Z,10.08
2023-05-09T21:30:52.493Z,10.05
2023-05-09T21:33:21.797Z,9.94
2023-05-09T21:35:50.561Z,9.89
2023-05-09T21:38:19.365Z,9.87
2023-05-09T21:40:48.158Z,9.84
2023-05-09T21:43:18.370Z,9.79
2023-05-09T21:45:49.093Z,9.76
2023-05-09T21:48:17.982Z,9.69
2023-05-09T21:50:46.821Z,9.65
2023-05-09T21:53:15.840Z,9.60
2023-05-09T21:55:44.353Z,9.57
2023-05-09T21:58:16.093Z,9.55
2023-05-09T22:00:44.677Z,9.56
2023-05-09T22:03:15.257Z,9.53
2023-05-09T22:05:43.725Z,9.50
2023-05-09T22:08:12.628Z,9.50
2023-05-09T22:10:41.473Z,9.47
2023-05-09T22:13:10.355Z,9.42
2023-05-09T22:15:38.853Z,9.40
2023-05-09T22:18:08.242Z,9.35
2023-05-09T22:20:38.664Z,9.31
2023-05-09T22:23:07.161Z,9.28
2023-05-09T22:25:35.690Z,9.23
2023-05-09T22:28:04.603Z,9.22
2023-05-09T22:30:32.937Z,9.21
2023-05-09T22:33:01.611Z,9.16
2023-05-09T22:35:30.464Z,9.12
2023-05-09T22:38:00.800Z,9.01
2023-05-09T22:40:29.780Z,8.96
2023-05-09T22:42:58.683Z,8.95
2023-05-09T22:45:27.894Z,8.90
2023-05-09T22:47:57.236Z,8.89
2023-05-09T22:50:26.002Z,8.84
2023-05-09T22:52:54.797Z,8.81
2023-05-09T22:55:25.554Z,8.77
2023-05-09T22:57:54.363Z,8.66
2023-05-09T23:00:23.568Z,8.58
2023-05-09T23:02:52.932Z,8.55
2023-05-09T23:05:22.135Z,8.49
2023-05-09T23:07:52.093Z,8.40
2023-05-09T23:10:21.140Z,8.36
2023-05-09T23:12:51.849Z,8.29
2023-05-09T23:15:20.915Z,8.31
2023-05-09T23:17:49.725Z,8.26
2023-05-09T23:20:18.677Z,8.26
2023-05-09T23:22:48.036Z,8.28
2023-05-09T23:25:16.878Z,8.30
2023-05-09T23:27:47.162Z,8.27
2023-05-09T23:30:17.564Z,8.28
2023-05-09T23:32:46.378Z,8.29
2023-05-09T23:35:15.673Z,8.31
2023-05-09T23:37:44.393Z,8.30
2023-05-09T23:40:14.833Z,8.27
2023-05-09T23:42:44.111Z,8.27
2023-05-09T23:45:13.679Z,8.24
2023-05-09T23:47:43.954Z,8.24
2023-05-09T23:50:13.836Z,8.21
2023-05-09T23:52:43.572Z,8.19
2023-05-09T23:55:12.105Z,8.16
2023-05-09T23:57:40.852Z,8.12
